Weather at Siasi Airport [CLOSED]

Public forecast

Using degrees Celsius for public forecast. Weather courtesy of forecast.io.

Closest aviation weather report (METAR) to Siasi Airport

Closest report is Zamboanga International Airport, 109.1 nm (202.1 km) NE.

2024/05/28 15:00 (retrieved 1 hour ago)

RPMZ 281500Z 04002KT 360V070 9999 FEW017 BKN090 28/25 Q1011 RMK A2985

Closest aviation forecast (TAF) to Siasi Airport

Closest forecast is Zamboanga International Airport, 109.1 nm (202.1 km) NE.

2024/05/28 12:00 (retrieved 4 hours ago)

TAF RPMZ 281100Z 2812/2912 07005KT 9999 FEW017 SCT090 TEMPO 2812/2818 VRB02KT FEW016CB BKN090